sensor_id;sensor_type;location;lat;lon;timestamp;P1;durP1;ratioP1;P2;durP2;ratioP2
68216;SDS011;55037;52.354;4.992;2023-07-20T00:00:24;2.58;;;1.52;;
68216;SDS011;55037;52.354;4.992;2023-07-20T00:02:52;2.83;;;2.20;;
68216;SDS011;55037;52.354;4.992;2023-07-20T00:05:36;3.37;;;1.93;;
68216;SDS011;55037;52.354;4.992;2023-07-20T00:08:03;4.00;;;2.08;;
68216;SDS011;55037;52.354;4.992;2023-07-20T00:10:31;6.22;;;2.50;;
68216;SDS011;55037;52.354;4.992;2023-07-20T00:12:58;6.03;;;2.25;;
68216;SDS011;55037;52.354;4.992;2023-07-20T00:15:25;2.65;;;1.90;;
68216;SDS011;55037;52.354;4.992;2023-07-20T00:17:52;4.33;;;2.27;;
68216;SDS011;55037;52.354;4.992;2023-07-20T00:20:21;6.43;;;2.47;;
68216;SDS011;55037;52.354;4.992;2023-07-20T00:22:50;7.40;;;2.47;;
68216;SDS011;55037;52.354;4.992;2023-07-20T00:25:18;3.80;;;2.33;;
68216;SDS011;55037;52.354;4.992;2023-07-20T00:27:45;4.05;;;2.33;;
68216;SDS011;55037;52.354;4.992;2023-07-20T00:30:13;4.47;;;2.00;;
68216;SDS011;55037;52.354;4.992;2023-07-20T00:32:42;3.67;;;2.10;;
68216;SDS011;55037;52.354;4.992;2023-07-20T00:35:10;3.08;;;2.25;;
68216;SDS011;55037;52.354;4.992;2023-07-20T00:37:38;3.92;;;2.45;;
68216;SDS011;55037;52.354;4.992;2023-07-20T00:40:06;4.53;;;2.38;;
68216;SDS011;55037;52.354;4.992;2023-07-20T00:42:36;4.23;;;2.33;;
68216;SDS011;55037;52.354;4.992;2023-07-20T00:45:04;4.43;;;2.05;;
68216;SDS011;55037;52.354;4.992;2023-07-20T00:47:32;3.95;;;2.33;;
68216;SDS011;55037;52.354;4.992;2023-07-20T00:49:59;4.18;;;2.25;;
68216;SDS011;55037;52.354;4.992;2023-07-20T00:52:30;5.30;;;2.35;;
68216;SDS011;55037;52.354;4.992;2023-07-20T00:54:57;4.13;;;2.30;;
68216;SDS011;55037;52.354;4.992;2023-07-20T00:57:25;4.22;;;2.20;;
68216;SDS011;55037;52.354;4.992;2023-07-20T00:59:52;4.22;;;2.28;;
68216;SDS011;55037;52.354;4.992;2023-07-20T01:02:20;4.82;;;2.78;;
68216;SDS011;55037;52.354;4.992;2023-07-20T01:04:47;5.88;;;2.30;;
68216;SDS011;55037;52.354;4.992;2023-07-20T01:10:01;3.88;;;2.70;;
68216;SDS011;55037;52.354;4.992;2023-07-20T01:15:09;4.68;;;2.67;;
68216;SDS011;55037;52.354;4.992;2023-07-20T01:17:37;4.28;;;2.58;;
68216;SDS011;55037;52.354;4.992;2023-07-20T01:20:08;3.77;;;2.40;;
68216;SDS011;55037;52.354;4.992;2023-07-20T01:28:23;5.18;;;2.72;;
68216;SDS011;55037;52.354;4.992;2023-07-20T01:33:56;4.93;;;3.20;;
68216;SDS011;55037;52.354;4.992;2023-07-20T01:36:26;6.03;;;3.17;;
68216;SDS011;55037;52.354;4.992;2023-07-20T01:38:56;6.45;;;3.67;;
68216;SDS011;55037;52.354;4.992;2023-07-20T01:41:24;6.40;;;3.50;;
68216;SDS011;55037;52.354;4.992;2023-07-20T01:43:51;4.50;;;3.25;;
68216;SDS011;55037;52.354;4.992;2023-07-20T01:46:18;4.47;;;2.93;;
68216;SDS011;55037;52.354;4.992;2023-07-20T01:48:46;5.03;;;3.30;;
68216;SDS011;55037;52.354;4.992;2023-07-20T01:51:14;5.15;;;3.33;;
68216;SDS011;55037;52.354;4.992;2023-07-20T01:53:41;5.70;;;3.78;;
68216;SDS011;55037;52.354;4.992;2023-07-20T01:56:09;6.40;;;3.55;;
68216;SDS011;55037;52.354;4.992;2023-07-20T01:58:38;4.93;;;3.40;;
68216;SDS011;55037;52.354;4.992;2023-07-20T02:01:06;4.60;;;2.90;;
68216;SDS011;55037;52.354;4.992;2023-07-20T02:03:33;5.68;;;3.25;;
68216;SDS011;55037;52.354;4.992;2023-07-20T02:06:00;6.63;;;2.80;;
68216;SDS011;55037;52.354;4.992;2023-07-20T02:08:28;4.22;;;2.75;;
68216;SDS011;55037;52.354;4.992;2023-07-20T02:10:56;4.93;;;2.73;;
68216;SDS011;55037;52.354;4.992;2023-07-20T02:13:23;4.82;;;2.92;;
68216;SDS011;55037;52.354;4.992;2023-07-20T02:15:51;5.53;;;2.78;;
68216;SDS011;55037;52.354;4.992;2023-07-20T02:18:18;6.70;;;3.03;;
68216;SDS011;55037;52.354;4.992;2023-07-20T02:20:45;6.03;;;2.75;;
68216;SDS011;55037;52.354;4.992;2023-07-20T02:23:13;9.43;;;3.00;;
68216;SDS011;55037;52.354;4.992;2023-07-20T02:25:40;5.70;;;2.63;;
68216;SDS011;55037;52.354;4.992;2023-07-20T02:28:07;4.32;;;2.65;;
68216;SDS011;55037;52.354;4.992;2023-07-20T02:30:39;4.55;;;2.53;;
68216;SDS011;55037;52.354;4.992;2023-07-20T02:33:06;6.85;;;2.70;;
68216;SDS011;55037;52.354;4.992;2023-07-20T02:35:34;5.00;;;2.27;;
68216;SDS011;55037;52.354;4.992;2023-07-20T02:38:01;3.60;;;2.22;;
68216;SDS011;55037;52.354;4.992;2023-07-20T02:40:29;4.65;;;2.65;;
68216;SDS011;55037;52.354;4.992;2023-07-20T02:42:57;4.22;;;2.13;;
68216;SDS011;55037;52.354;4.992;2023-07-20T02:45:24;4.43;;;2.15;;
68216;SDS011;55037;52.354;4.992;2023-07-20T02:47:51;3.93;;;1.97;;
68216;SDS011;55037;52.354;4.992;2023-07-20T02:50:19;4.82;;;2.10;;
68216;SDS011;55037;52.354;4.992;2023-07-20T02:52:46;7.15;;;2.42;;
68216;SDS011;55037;52.354;4.992;2023-07-20T02:55:14;4.07;;;2.28;;
68216;SDS011;55037;52.354;4.992;2023-07-20T02:57:41;3.03;;;2.13;;
68216;SDS011;55037;52.354;4.992;2023-07-20T03:00:09;4.70;;;2.20;;
68216;SDS011;55037;52.354;4.992;2023-07-20T03:02:38;5.65;;;2.33;;
68216;SDS011;55037;52.354;4.992;2023-07-20T03:05:05;4.03;;;2.38;;
68216;SDS011;55037;52.354;4.992;2023-07-20T03:07:34;3.50;;;2.10;;
68216;SDS011;55037;52.354;4.992;2023-07-20T03:10:01;4.13;;;2.65;;
68216;SDS011;55037;52.354;4.992;2023-07-20T03:12:29;3.60;;;2.00;;
68216;SDS011;55037;52.354;4.992;2023-07-20T03:14:57;6.10;;;2.22;;
68216;SDS011;55037;52.354;4.992;2023-07-20T03:17:25;5.40;;;2.30;;
68216;SDS011;55037;52.354;4.992;2023-07-20T03:19:52;3.70;;;1.80;;
68216;SDS011;55037;52.354;4.992;2023-07-20T03:22:20;3.85;;;1.92;;
68216;SDS011;55037;52.354;4.992;2023-07-20T03:24:49;4.17;;;1.77;;
68216;SDS011;55037;52.354;4.992;2023-07-20T03:27:18;5.00;;;1.98;;
68216;SDS011;55037;52.354;4.992;2023-07-20T03:29:46;3.67;;;1.77;;
68216;SDS011;55037;52.354;4.992;2023-07-20T03:32:13;2.65;;;1.70;;
68216;SDS011;55037;52.354;4.992;2023-07-20T03:34:41;3.97;;;1.90;;
68216;SDS011;55037;52.354;4.992;2023-07-20T03:37:08;2.67;;;1.83;;
68216;SDS011;55037;52.354;4.992;2023-07-20T03:39:35;3.53;;;1.83;;
68216;SDS011;55037;52.354;4.992;2023-07-20T03:42:04;5.25;;;1.90;;
68216;SDS011;55037;52.354;4.992;2023-07-20T03:44:33;2.70;;;1.60;;
68216;SDS011;55037;52.354;4.992;2023-07-20T03:47:00;2.95;;;1.90;;
68216;SDS011;55037;52.354;4.992;2023-07-20T03:49:28;4.90;;;1.73;;
68216;SDS011;55037;52.354;4.992;2023-07-20T03:51:55;3.63;;;1.40;;
68216;SDS011;55037;52.354;4.992;2023-07-20T03:54:23;4.03;;;1.70;;
68216;SDS011;55037;52.354;4.992;2023-07-20T03:56:50;3.10;;;2.00;;
68216;SDS011;55037;52.354;4.992;2023-07-20T03:59:17;3.55;;;1.90;;
68216;SDS011;55037;52.354;4.992;2023-07-20T04:01:45;2.13;;;1.30;;
68216;SDS011;55037;52.354;4.992;2023-07-20T04:04:15;2.15;;;1.42;;
68216;SDS011;55037;52.354;4.992;2023-07-20T04:06:42;2.70;;;1.60;;
68216;SDS011;55037;52.354;4.992;2023-07-20T04:09:11;3.20;;;1.67;;
68216;SDS011;55037;52.354;4.992;2023-07-20T04:11:39;3.72;;;1.60;;
68216;SDS011;55037;52.354;4.992;2023-07-20T04:14:07;2.90;;;1.60;;
68216;SDS011;55037;52.354;4.992;2023-07-20T04:16:34;2.50;;;1.70;;
68216;SDS011;55037;52.354;4.992;2023-07-20T04:19:02;2.33;;;1.80;;
68216;SDS011;55037;52.354;4.992;2023-07-20T04:21:29;2.10;;;1.20;;
68216;SDS011;55037;52.354;4.992;2023-07-20T04:23:56;2.90;;;1.58;;
68216;SDS011;55037;52.354;4.992;2023-07-20T04:26:24;4.40;;;1.50;;
68216;SDS011;55037;52.354;4.992;2023-07-20T04:28:51;3.03;;;1.58;;
68216;SDS011;55037;52.354;4.992;2023-07-20T04:31:40;3.13;;;1.75;;
68216;SDS011;55037;52.354;4.992;2023-07-20T04:34:08;2.60;;;1.40;;
68216;SDS011;55037;52.354;4.992;2023-07-20T04:36:36;2.50;;;1.60;;
68216;SDS011;55037;52.354;4.992;2023-07-20T04:39:04;2.40;;;1.43;;
68216;SDS011;55037;52.354;4.992;2023-07-20T04:41:47;2.70;;;1.40;;
68216;SDS011;55037;52.354;4.992;2023-07-20T04:44:16;3.42;;;1.60;;
68216;SDS011;55037;52.354;4.992;2023-07-20T04:46:43;4.68;;;1.50;;
68216;SDS011;55037;52.354;4.992;2023-07-20T04:49:13;3.00;;;1.70;;
68216;SDS011;55037;52.354;4.992;2023-07-20T04:51:42;2.83;;;1.70;;
68216;SDS011;55037;52.354;4.992;2023-07-20T04:54:10;2.55;;;1.60;;
68216;SDS011;55037;52.354;4.992;2023-07-20T04:56:38;5.40;;;2.05;;
68216;SDS011;55037;52.354;4.992;2023-07-20T04:59:08;3.75;;;1.63;;
68216;SDS011;55037;52.354;4.992;2023-07-20T05:01:35;3.25;;;1.60;;
68216;SDS011;55037;52.354;4.992;2023-07-20T05:04:05;2.53;;;1.63;;
68216;SDS011;55037;52.354;4.992;2023-07-20T05:06:35;4.78;;;1.60;;
68216;SDS011;55037;52.354;4.992;2023-07-20T05:09:02;3.85;;;1.48;;
68216;SDS011;55037;52.354;4.992;2023-07-20T05:11:29;2.65;;;1.40;;
68216;SDS011;55037;52.354;4.992;2023-07-20T05:13:57;4.10;;;1.70;;
68216;SDS011;55037;52.354;4.992;2023-07-20T05:16:24;3.70;;;1.37;;
68216;SDS011;55037;52.354;4.992;2023-07-20T05:18:53;3.28;;;1.50;;
68216;SDS011;55037;52.354;4.992;2023-07-20T05:21:21;3.28;;;1.42;;
68216;SDS011;55037;52.354;4.992;2023-07-20T05:23:48;3.83;;;1.55;;
68216;SDS011;55037;52.354;4.992;2023-07-20T05:26:15;2.47;;;1.60;;
68216;SDS011;55037;52.354;4.992;2023-07-20T05:28:43;3.23;;;1.50;;
68216;SDS011;55037;52.354;4.992;2023-07-20T05:31:10;3.35;;;1.50;;
68216;SDS011;55037;52.354;4.992;2023-07-20T05:33:37;4.35;;;1.30;;
68216;SDS011;55037;52.354;4.992;2023-07-20T05:36:05;3.95;;;1.35;;
68216;SDS011;55037;52.354;4.992;2023-07-20T05:38:32;3.38;;;1.65;;
68216;SDS011;55037;52.354;4.992;2023-07-20T05:41:00;2.50;;;1.17;;
68216;SDS011;55037;52.354;4.992;2023-07-20T05:43:28;2.38;;;1.30;;
68216;SDS011;55037;52.354;4.992;2023-07-20T05:45:56;4.43;;;1.60;;
68216;SDS011;55037;52.354;4.992;2023-07-20T05:48:24;4.18;;;1.30;;
68216;SDS011;55037;52.354;4.992;2023-07-20T05:50:51;3.42;;;1.60;;
68216;SDS011;55037;52.354;4.992;2023-07-20T05:53:18;4.57;;;1.70;;
68216;SDS011;55037;52.354;4.992;2023-07-20T05:55:51;3.78;;;1.50;;
68216;SDS011;55037;52.354;4.992;2023-07-20T05:58:19;2.22;;;1.58;;
68216;SDS011;55037;52.354;4.992;2023-07-20T06:00:47;4.93;;;1.50;;
68216;SDS011;55037;52.354;4.992;2023-07-20T06:03:16;4.03;;;1.38;;
68216;SDS011;55037;52.354;4.992;2023-07-20T06:05:44;2.83;;;1.27;;
68216;SDS011;55037;52.354;4.992;2023-07-20T06:08:12;3.63;;;1.42;;
68216;SDS011;55037;52.354;4.992;2023-07-20T06:10:39;3.05;;;1.40;;
68216;SDS011;55037;52.354;4.992;2023-07-20T06:13:10;3.55;;;1.30;;
68216;SDS011;55037;52.354;4.992;2023-07-20T06:15:38;2.85;;;1.50;;
68216;SDS011;55037;52.354;4.992;2023-07-20T06:18:07;3.63;;;1.40;;
68216;SDS011;55037;52.354;4.992;2023-07-20T06:20:35;4.88;;;1.25;;
68216;SDS011;55037;52.354;4.992;2023-07-20T06:23:02;3.03;;;1.55;;
68216;SDS011;55037;52.354;4.992;2023-07-20T06:25:30;2.10;;;1.10;;
68216;SDS011;55037;52.354;4.992;2023-07-20T06:27:57;3.28;;;1.60;;
68216;SDS011;55037;52.354;4.992;2023-07-20T06:30:24;2.83;;;1.40;;
68216;SDS011;55037;52.354;4.992;2023-07-20T06:32:52;2.25;;;1.00;;
68216;SDS011;55037;52.354;4.992;2023-07-20T06:35:19;2.08;;;1.38;;
68216;SDS011;55037;52.354;4.992;2023-07-20T06:37:47;2.08;;;1.20;;
68216;SDS011;55037;52.354;4.992;2023-07-20T06:40:14;3.10;;;1.20;;
68216;SDS011;55037;52.354;4.992;2023-07-20T06:42:45;1.90;;;1.17;;
68216;SDS011;55037;52.354;4.992;2023-07-20T06:45:15;2.63;;;1.50;;
68216;SDS011;55037;52.354;4.992;2023-07-20T06:47:43;3.47;;;1.45;;
68216;SDS011;55037;52.354;4.992;2023-07-20T06:50:12;5.55;;;1.60;;
68216;SDS011;55037;52.354;4.992;2023-07-20T06:52:44;3.30;;;1.60;;
68216;SDS011;55037;52.354;4.992;2023-07-20T06:55:13;4.23;;;1.50;;
68216;SDS011;55037;52.354;4.992;2023-07-20T06:57:40;2.67;;;1.42;;
68216;SDS011;55037;52.354;4.992;2023-07-20T07:00:13;4.32;;;1.63;;
68216;SDS011;55037;52.354;4.992;2023-07-20T07:02:41;3.08;;;1.30;;
68216;SDS011;55037;52.354;4.992;2023-07-20T07:05:08;3.97;;;1.95;;
68216;SDS011;55037;52.354;4.992;2023-07-20T07:07:39;4.03;;;1.40;;
68216;SDS011;55037;52.354;4.992;2023-07-20T07:10:07;5.07;;;1.20;;
68216;SDS011;55037;52.354;4.992;2023-07-20T07:12:35;3.78;;;1.35;;
68216;SDS011;55037;52.354;4.992;2023-07-20T07:15:03;3.40;;;1.70;;
68216;SDS011;55037;52.354;4.992;2023-07-20T07:17:33;3.20;;;1.65;;
68216;SDS011;55037;52.354;4.992;2023-07-20T07:20:02;2.80;;;1.30;;
68216;SDS011;55037;52.354;4.992;2023-07-20T07:22:31;2.25;;;1.10;;
68216;SDS011;55037;52.354;4.992;2023-07-20T07:24:59;1.90;;;1.20;;
68216;SDS011;55037;52.354;4.992;2023-07-20T07:27:26;3.03;;;1.35;;
68216;SDS011;55037;52.354;4.992;2023-07-20T07:29:53;3.05;;;1.23;;
68216;SDS011;55037;52.354;4.992;2023-07-20T07:32:21;3.47;;;1.53;;
68216;SDS011;55037;52.354;4.992;2023-07-20T07:34:49;3.90;;;1.05;;
68216;SDS011;55037;52.354;4.992;2023-07-20T07:37:16;4.45;;;1.58;;
68216;SDS011;55037;52.354;4.992;2023-07-20T07:39:44;3.08;;;1.30;;
68216;SDS011;55037;52.354;4.992;2023-07-20T07:42:11;5.28;;;1.70;;
68216;SDS011;55037;52.354;4.992;2023-07-20T07:44:39;3.83;;;1.30;;
68216;SDS011;55037;52.354;4.992;2023-07-20T07:47:07;3.92;;;1.73;;
68216;SDS011;55037;52.354;4.992;2023-07-20T07:49:34;2.70;;;1.50;;
68216;SDS011;55037;52.354;4.992;2023-07-20T07:52:01;2.47;;;1.30;;
68216;SDS011;55037;52.354;4.992;2023-07-20T07:54:31;3.83;;;1.50;;
68216;SDS011;55037;52.354;4.992;2023-07-20T07:56:59;3.60;;;1.60;;
68216;SDS011;55037;52.354;4.992;2023-07-20T07:59:26;3.47;;;1.48;;
68216;SDS011;55037;52.354;4.992;2023-07-20T08:01:53;4.35;;;2.05;;
68216;SDS011;55037;52.354;4.992;2023-07-20T08:04:21;5.20;;;2.20;;
68216;SDS011;55037;52.354;4.992;2023-07-20T08:06:49;3.47;;;1.50;;
68216;SDS011;55037;52.354;4.992;2023-07-20T08:09:16;5.60;;;2.83;;
68216;SDS011;55037;52.354;4.992;2023-07-20T08:11:44;3.58;;;2.15;;
68216;SDS011;55037;52.354;4.992;2023-07-20T08:14:11;3.05;;;1.70;;
68216;SDS011;55037;52.354;4.992;2023-07-20T08:16:38;3.15;;;2.00;;
68216;SDS011;55037;52.354;4.992;2023-07-20T08:19:06;2.70;;;1.63;;
68216;SDS011;55037;52.354;4.992;2023-07-20T08:21:33;2.00;;;1.20;;
68216;SDS011;55037;52.354;4.992;2023-07-20T08:24:01;2.50;;;1.30;;
68216;SDS011;55037;52.354;4.992;2023-07-20T08:26:28;2.58;;;1.45;;
68216;SDS011;55037;52.354;4.992;2023-07-20T08:28:56;2.38;;;1.20;;
68216;SDS011;55037;52.354;4.992;2023-07-20T08:31:23;3.45;;;1.50;;
68216;SDS011;55037;52.354;4.992;2023-07-20T08:33:50;3.80;;;1.40;;
68216;SDS011;55037;52.354;4.992;2023-07-20T08:36:18;2.40;;;1.73;;
68216;SDS011;55037;52.354;4.992;2023-07-20T08:38:45;2.53;;;1.40;;
68216;SDS011;55037;52.354;4.992;2023-07-20T08:41:12;2.63;;;2.10;;
68216;SDS011;55037;52.354;4.992;2023-07-20T08:43:41;2.30;;;1.50;;
68216;SDS011;55037;52.354;4.992;2023-07-20T08:46:13;3.00;;;1.70;;
68216;SDS011;55037;52.354;4.992;2023-07-20T08:48:45;3.03;;;1.98;;
68216;SDS011;55037;52.354;4.992;2023-07-20T08:51:13;3.38;;;1.60;;
68216;SDS011;55037;52.354;4.992;2023-07-20T08:53:42;2.78;;;1.65;;
68216;SDS011;55037;52.354;4.992;2023-07-20T08:56:12;4.32;;;1.73;;
68216;SDS011;55037;52.354;4.992;2023-07-20T08:58:40;2.97;;;1.80;;
68216;SDS011;55037;52.354;4.992;2023-07-20T09:01:10;3.08;;;1.63;;
68216;SDS011;55037;52.354;4.992;2023-07-20T09:03:39;3.10;;;1.90;;
68216;SDS011;55037;52.354;4.992;2023-07-20T09:06:06;2.17;;;1.70;;
68216;SDS011;55037;52.354;4.992;2023-07-20T09:08:37;3.75;;;1.70;;
68216;SDS011;55037;52.354;4.992;2023-07-20T09:11:05;4.10;;;1.93;;
68216;SDS011;55037;52.354;4.992;2023-07-20T09:13:33;3.30;;;1.60;;
68216;SDS011;55037;52.354;4.992;2023-07-20T09:16:01;3.80;;;2.10;;
68216;SDS011;55037;52.354;4.992;2023-07-20T09:18:32;3.63;;;2.10;;
68216;SDS011;55037;52.354;4.992;2023-07-20T09:21:02;3.20;;;2.15;;
68216;SDS011;55037;52.354;4.992;2023-07-20T09:23:34;2.70;;;1.90;;
68216;SDS011;55037;52.354;4.992;2023-07-20T09:26:09;3.33;;;2.05;;
68216;SDS011;55037;52.354;4.992;2023-07-20T09:28:47;2.97;;;2.00;;
68216;SDS011;55037;52.354;4.992;2023-07-20T09:31:15;3.20;;;2.10;;
68216;SDS011;55037;52.354;4.992;2023-07-20T09:33:44;3.47;;;2.20;;
68216;SDS011;55037;52.354;4.992;2023-07-20T09:36:15;3.47;;;2.20;;
68216;SDS011;55037;52.354;4.992;2023-07-20T09:39:03;3.30;;;2.03;;
68216;SDS011;55037;52.354;4.992;2023-07-20T09:41:39;4.68;;;2.45;;
68216;SDS011;55037;52.354;4.992;2023-07-20T09:44:13;3.83;;;2.10;;
68216;SDS011;55037;52.354;4.992;2023-07-20T09:46:45;3.50;;;2.30;;
68216;SDS011;55037;52.354;4.992;2023-07-20T09:49:18;4.43;;;2.10;;
68216;SDS011;55037;52.354;4.992;2023-07-20T09:51:48;2.47;;;1.80;;
68216;SDS011;55037;52.354;4.992;2023-07-20T09:54:17;11.82;;;2.17;;
68216;SDS011;55037;52.354;4.992;2023-07-20T09:56:44;3.22;;;2.28;;
68216;SDS011;55037;52.354;4.992;2023-07-20T09:59:14;4.45;;;2.00;;
68216;SDS011;55037;52.354;4.992;2023-07-20T10:01:41;2.50;;;1.80;;
68216;SDS011;55037;52.354;4.992;2023-07-20T10:04:10;2.88;;;1.83;;
68216;SDS011;55037;52.354;4.992;2023-07-20T10:06:39;3.83;;;2.10;;
68216;SDS011;55037;52.354;4.992;2023-07-20T10:09:10;2.95;;;1.80;;
68216;SDS011;55037;52.354;4.992;2023-07-20T10:11:43;5.05;;;1.95;;
68216;SDS011;55037;52.354;4.992;2023-07-20T10:14:20;5.17;;;2.00;;
68216;SDS011;55037;52.354;4.992;2023-07-20T10:16:51;3.83;;;2.00;;
68216;SDS011;55037;52.354;4.992;2023-07-20T10:19:34;3.10;;;1.92;;
68216;SDS011;55037;52.354;4.992;2023-07-20T10:22:19;3.15;;;2.05;;
68216;SDS011;55037;52.354;4.992;2023-07-20T10:25:07;3.33;;;2.05;;
68216;SDS011;55037;52.354;4.992;2023-07-20T10:27:36;4.67;;;2.23;;
68216;SDS011;55037;52.354;4.992;2023-07-20T10:30:04;4.22;;;2.17;;
68216;SDS011;55037;52.354;4.992;2023-07-20T10:32:32;4.60;;;2.10;;
68216;SDS011;55037;52.354;4.992;2023-07-20T10:35:00;4.45;;;2.42;;
68216;SDS011;55037;52.354;4.992;2023-07-20T10:43:01;3.55;;;2.53;;
68216;SDS011;55037;52.354;4.992;2023-07-20T10:45:39;3.50;;;2.95;;
68216;SDS011;55037;52.354;4.992;2023-07-20T10:48:21;3.42;;;2.25;;
68216;SDS011;55037;52.354;4.992;2023-07-20T10:53:56;5.80;;;3.10;;
68216;SDS011;55037;52.354;4.992;2023-07-20T10:56:26;3.85;;;2.65;;
68216;SDS011;55037;52.354;4.992;2023-07-20T10:58:57;4.10;;;3.70;;
68216;SDS011;55037;52.354;4.992;2023-07-20T11:01:29;3.50;;;2.38;;
68216;SDS011;55037;52.354;4.992;2023-07-20T11:03:59;6.05;;;2.72;;
68216;SDS011;55037;52.354;4.992;2023-07-20T11:08:54;4.15;;;2.35;;
68216;SDS011;55037;52.354;4.992;2023-07-20T11:11:26;3.63;;;2.60;;
68216;SDS011;55037;52.354;4.992;2023-07-20T11:19:00;4.57;;;4.10;;
68216;SDS011;55037;52.354;4.992;2023-07-20T11:21:28;3.53;;;2.80;;
68216;SDS011;55037;52.354;4.992;2023-07-20T11:23:56;5.63;;;3.72;;
68216;SDS011;55037;52.354;4.992;2023-07-20T11:26:55;3.92;;;3.40;;
68216;SDS011;55037;52.354;4.992;2023-07-20T11:29:24;5.17;;;4.37;;
68216;SDS011;55037;52.354;4.992;2023-07-20T11:31:59;3.92;;;3.30;;
68216;SDS011;55037;52.354;4.992;2023-07-20T11:34:29;3.83;;;3.15;;
68216;SDS011;55037;52.354;4.992;2023-07-20T11:36:58;4.50;;;3.53;;
68216;SDS011;55037;52.354;4.992;2023-07-20T11:39:28;3.80;;;3.40;;
68216;SDS011;55037;52.354;4.992;2023-07-20T11:41:56;4.67;;;3.10;;
68216;SDS011;55037;52.354;4.992;2023-07-20T11:44:26;3.78;;;2.83;;
68216;SDS011;55037;52.354;4.992;2023-07-20T11:49:39;4.68;;;2.80;;
68216;SDS011;55037;52.354;4.992;2023-07-20T11:52:14;3.58;;;2.50;;
68216;SDS011;55037;52.354;4.992;2023-07-20T11:54:43;8.77;;;3.13;;
68216;SDS011;55037;52.354;4.992;2023-07-20T11:57:19;3.63;;;2.70;;
68216;SDS011;55037;52.354;4.992;2023-07-20T12:00:01;3.30;;;2.70;;
68216;SDS011;55037;52.354;4.992;2023-07-20T12:02:39;4.00;;;2.50;;
68216;SDS011;55037;52.354;4.992;2023-07-20T12:05:06;3.88;;;3.08;;
68216;SDS011;55037;52.354;4.992;2023-07-20T12:07:36;3.53;;;2.60;;
68216;SDS011;55037;52.354;4.992;2023-07-20T12:12:37;4.15;;;2.53;;
68216;SDS011;55037;52.354;4.992;2023-07-20T12:15:15;4.43;;;2.55;;
68216;SDS011;55037;52.354;4.992;2023-07-20T12:17:44;3.60;;;2.75;;
68216;SDS011;55037;52.354;4.992;2023-07-20T12:20:12;4.10;;;2.40;;
68216;SDS011;55037;52.354;4.992;2023-07-20T12:22:40;3.10;;;2.40;;
68216;SDS011;55037;52.354;4.992;2023-07-20T12:25:10;4.40;;;2.83;;
68216;SDS011;55037;52.354;4.992;2023-07-20T12:27:37;4.60;;;2.28;;
68216;SDS011;55037;52.354;4.992;2023-07-20T12:30:05;4.50;;;1.92;;
68216;SDS011;55037;52.354;4.992;2023-07-20T12:32:33;4.37;;;2.20;;
68216;SDS011;55037;52.354;4.992;2023-07-20T12:35:00;3.72;;;2.30;;
68216;SDS011;55037;52.354;4.992;2023-07-20T12:37:28;3.85;;;2.05;;
68216;SDS011;55037;52.354;4.992;2023-07-20T12:39:55;5.53;;;2.35;;
68216;SDS011;55037;52.354;4.992;2023-07-20T12:42:22;8.73;;;2.17;;
68216;SDS011;55037;52.354;4.992;2023-07-20T12:44:50;8.63;;;2.50;;
68216;SDS011;55037;52.354;4.992;2023-07-20T12:47:17;5.25;;;2.22;;
68216;SDS011;55037;52.354;4.992;2023-07-20T12:49:45;3.05;;;2.35;;
68216;SDS011;55037;52.354;4.992;2023-07-20T12:52:15;4.00;;;2.60;;
68216;SDS011;55037;52.354;4.992;2023-07-20T12:54:43;3.83;;;2.55;;
68216;SDS011;55037;52.354;4.992;2023-07-20T12:57:10;3.73;;;2.60;;
68216;SDS011;55037;52.354;4.992;2023-07-20T12:59:39;3.70;;;2.72;;
68216;SDS011;55037;52.354;4.992;2023-07-20T13:02:06;3.35;;;2.85;;
68216;SDS011;55037;52.354;4.992;2023-07-20T13:04:33;4.75;;;2.97;;
68216;SDS011;55037;52.354;4.992;2023-07-20T13:07:01;4.38;;;3.28;;
68216;SDS011;55037;52.354;4.992;2023-07-20T13:09:48;3.37;;;2.80;;
68216;SDS011;55037;52.354;4.992;2023-07-20T13:12:15;4.97;;;2.92;;
68216;SDS011;55037;52.354;4.992;2023-07-20T13:14:43;4.20;;;3.33;;
68216;SDS011;55037;52.354;4.992;2023-07-20T13:17:10;3.92;;;3.55;;
68216;SDS011;55037;52.354;4.992;2023-07-20T13:19:37;3.63;;;3.17;;
68216;SDS011;55037;52.354;4.992;2023-07-20T13:22:04;3.87;;;3.17;;
68216;SDS011;55037;52.354;4.992;2023-07-20T13:24:32;4.28;;;3.20;;
68216;SDS011;55037;52.354;4.992;2023-07-20T13:26:59;4.13;;;2.92;;
68216;SDS011;55037;52.354;4.992;2023-07-20T13:29:27;3.80;;;3.17;;
68216;SDS011;55037;52.354;4.992;2023-07-20T13:31:54;3.88;;;2.70;;
68216;SDS011;55037;52.354;4.992;2023-07-20T13:34:21;5.40;;;3.27;;
68216;SDS011;55037;52.354;4.992;2023-07-20T13:36:49;5.47;;;2.97;;
68216;SDS011;55037;52.354;4.992;2023-07-20T13:39:16;4.25;;;3.00;;
68216;SDS011;55037;52.354;4.992;2023-07-20T13:41:44;4.72;;;2.80;;
68216;SDS011;55037;52.354;4.992;2023-07-20T13:44:12;3.83;;;2.60;;
68216;SDS011;55037;52.354;4.992;2023-07-20T13:46:43;3.50;;;2.80;;
68216;SDS011;55037;52.354;4.992;2023-07-20T13:49:10;3.53;;;3.05;;
68216;SDS011;55037;52.354;4.992;2023-07-20T13:51:48;3.88;;;3.13;;
68216;SDS011;55037;52.354;4.992;2023-07-20T13:54:36;4.03;;;3.55;;
68216;SDS011;55037;52.354;4.992;2023-07-20T13:57:12;3.42;;;2.50;;
68216;SDS011;55037;52.354;4.992;2023-07-20T13:59:41;2.93;;;2.37;;
68216;SDS011;55037;52.354;4.992;2023-07-20T14:02:10;5.38;;;2.85;;
68216;SDS011;55037;52.354;4.992;2023-07-20T14:04:40;3.67;;;2.60;;
68216;SDS011;55037;52.354;4.992;2023-07-20T14:07:08;4.30;;;2.35;;
68216;SDS011;55037;52.354;4.992;2023-07-20T14:09:36;4.60;;;2.80;;
68216;SDS011;55037;52.354;4.992;2023-07-20T14:12:23;3.47;;;2.40;;
68216;SDS011;55037;52.354;4.992;2023-07-20T14:14:50;4.57;;;2.25;;
68216;SDS011;55037;52.354;4.992;2023-07-20T14:17:18;2.88;;;2.25;;
68216;SDS011;55037;52.354;4.992;2023-07-20T14:19:45;4.20;;;2.72;;
68216;SDS011;55037;52.354;4.992;2023-07-20T14:22:12;6.03;;;2.70;;
68216;SDS011;55037;52.354;4.992;2023-07-20T14:24:40;5.50;;;2.53;;
68216;SDS011;55037;52.354;4.992;2023-07-20T14:27:07;3.60;;;2.70;;
68216;SDS011;55037;52.354;4.992;2023-07-20T14:29:34;3.25;;;2.72;;
68216;SDS011;55037;52.354;4.992;2023-07-20T14:32:03;3.13;;;2.30;;
68216;SDS011;55037;52.354;4.992;2023-07-20T14:34:33;4.93;;;2.30;;
68216;SDS011;55037;52.354;4.992;2023-07-20T14:37:03;4.73;;;2.40;;
68216;SDS011;55037;52.354;4.992;2023-07-20T14:39:31;3.25;;;2.10;;
68216;SDS011;55037;52.354;4.992;2023-07-20T14:41:58;4.47;;;2.22;;
68216;SDS011;55037;52.354;4.992;2023-07-20T14:44:25;3.80;;;2.10;;
68216;SDS011;55037;52.354;4.992;2023-07-20T14:46:53;3.38;;;2.35;;
68216;SDS011;55037;52.354;4.992;2023-07-20T14:49:39;4.93;;;2.40;;
68216;SDS011;55037;52.354;4.992;2023-07-20T14:52:07;4.60;;;1.90;;
68216;SDS011;55037;52.354;4.992;2023-07-20T14:54:37;2.83;;;2.10;;
68216;SDS011;55037;52.354;4.992;2023-07-20T14:57:05;3.40;;;2.08;;
68216;SDS011;55037;52.354;4.992;2023-07-20T14:59:40;2.63;;;1.90;;
68216;SDS011;55037;52.354;4.992;2023-07-20T15:02:11;2.97;;;2.10;;
68216;SDS011;55037;52.354;4.992;2023-07-20T15:04:50;3.70;;;2.00;;
68216;SDS011;55037;52.354;4.992;2023-07-20T15:07:19;3.55;;;2.13;;
68216;SDS011;55037;52.354;4.992;2023-07-20T15:09:48;4.00;;;2.00;;
68216;SDS011;55037;52.354;4.992;2023-07-20T15:12:16;4.15;;;2.42;;
68216;SDS011;55037;52.354;4.992;2023-07-20T15:14:43;3.33;;;2.20;;
68216;SDS011;55037;52.354;4.992;2023-07-20T15:17:10;2.83;;;2.03;;
68216;SDS011;55037;52.354;4.992;2023-07-20T15:19:38;3.22;;;2.15;;
68216;SDS011;55037;52.354;4.992;2023-07-20T15:22:05;3.80;;;2.30;;
68216;SDS011;55037;52.354;4.992;2023-07-20T15:24:33;4.43;;;2.88;;
68216;SDS011;55037;52.354;4.992;2023-07-20T15:27:03;4.20;;;2.87;;
68216;SDS011;55037;52.354;4.992;2023-07-20T15:29:30;3.78;;;2.20;;
68216;SDS011;55037;52.354;4.992;2023-07-20T15:32:01;3.83;;;2.25;;
68216;SDS011;55037;52.354;4.992;2023-07-20T15:34:29;3.35;;;2.20;;